Archival Weather

Yakutsk

Yakutsk, Russia (UEEE)

Report from: Tuesday, June 6, 2023 4:30 PM JST
Current time: Thursday, May 30, 2024 8:22 AM JST

Current weather – Weather history – Daily summaries
Weather forecast

Temperature21.0°C (69.8°F)
Dew point3.0°C (37.4°F)
Winds 7.8 kts (4 m/s, 8.9 mph) Vrb
Winds variableWinds variable from West (280°) to North (10°)
Clouds Sky clear
Altimeter29.53 in.Hg (1000 mB)
Precip. events QF 6:22 PM
Relative humidity31 %
Density altitude1,263 ft. (385 m)
Remarks Ceiling and visibility OK
No significant changes expected in the next two hours
Flight conditions Visual Meteorological Conditions
Raw dataUEEE 060730Z 33004MPS 280V010 CAVOK 21/03 Q1000 R05/09//60 NOSIG RMK QFE742
An error has occurred. This application may no longer respond until reloaded. Reload 🗙